createdAt,value
2022-12-25T00:01:27.866Z,10.38
2022-12-25T00:06:30.700Z,10.95
2022-12-25T00:11:33.614Z,9.20
2022-12-25T00:16:36.470Z,8.75
2022-12-25T00:21:39.347Z,9.97
2022-12-25T00:26:42.005Z,8.93
2022-12-25T00:31:46.094Z,9.05
2022-12-25T00:36:51.420Z,9.33
2022-12-25T00:42:12.438Z,8.20
2022-12-25T00:47:16.264Z,6.60
2022-12-25T00:52:19.010Z,7.95
2022-12-25T00:57:21.695Z,6.57
2022-12-25T01:02:24.490Z,6.80
2022-12-25T01:07:27.729Z,7.43
2022-12-25T01:12:31.250Z,7.03
2022-12-25T01:17:34.742Z,7.68
2022-12-25T01:22:37.775Z,7.78
2022-12-25T01:27:41.762Z,7.37
2022-12-25T01:32:44.366Z,6.95
2022-12-25T01:37:46.922Z,6.83
2022-12-25T01:42:49.573Z,6.80
2022-12-25T01:47:52.338Z,7.38
2022-12-25T01:52:56.810Z,7.60
2022-12-25T01:57:59.421Z,8.80
2022-12-25T02:03:02.414Z,8.43
2022-12-25T02:08:09.803Z,7.47
2022-12-25T02:13:17.589Z,7.20
2022-12-25T02:18:41.739Z,8.53
2022-12-25T02:24:09.236Z,9.05
2022-12-25T02:29:42.752Z,8.23
2022-12-25T02:35:13.051Z,9.40
2022-12-25T02:40:44.079Z,8.38
2022-12-25T02:46:16.872Z,7.73
2022-12-25T02:51:41.715Z,8.18
2022-12-25T02:57:05.200Z,8.37
2022-12-25T03:02:26.891Z,8.65
2022-12-25T03:07:32.775Z,7.72
2022-12-25T03:13:03.625Z,8.43
2022-12-25T03:18:12.413Z,8.25
2022-12-25T03:23:37.880Z,8.27
2022-12-25T03:28:40.635Z,8.00
2022-12-25T03:34:23.426Z,7.53
2022-12-25T03:39:39.778Z,8.03
2022-12-25T03:45:11.301Z,7.65
2022-12-25T03:50:55.281Z,6.77
2022-12-25T03:56:17.962Z,6.43
2022-12-25T04:01:38.957Z,7.32
2022-12-25T04:07:00.916Z,7.57
2022-12-25T04:12:21.862Z,8.20
2022-12-25T04:18:02.791Z,6.80
2022-12-25T04:23:24.297Z,7.75
2022-12-25T04:28:45.308Z,7.13
2022-12-25T04:34:06.376Z,6.67
2022-12-25T04:39:10.191Z,7.97
2022-12-25T04:44:12.952Z,6.90
2022-12-25T04:49:15.613Z,8.25
2022-12-25T04:54:18.227Z,7.25
2022-12-25T04:59:20.919Z,8.07
2022-12-25T05:04:23.585Z,8.95
2022-12-25T05:09:27.041Z,7.07
2022-12-25T05:14:30.086Z,8.05
2022-12-25T05:19:32.802Z,7.38
2022-12-25T05:24:35.870Z,7.83
2022-12-25T05:29:38.548Z,8.52
2022-12-25T05:34:41.325Z,8.13
2022-12-25T05:39:43.962Z,8.70
2022-12-25T05:44:46.596Z,8.63
2022-12-25T05:49:49.253Z,8.37
2022-12-25T05:54:51.915Z,8.90
2022-12-25T05:59:54.580Z,8.37
2022-12-25T06:04:57.161Z,7.63
2022-12-25T06:09:59.757Z,8.65
2022-12-25T06:15:02.443Z,5.80
2022-12-25T06:20:06.308Z,6.50
2022-12-25T06:25:09.367Z,4.30
2022-12-25T06:30:12.419Z,6.18
2022-12-25T06:35:15.506Z,3.47
2022-12-25T06:40:18.848Z,4.13
2022-12-25T06:45:21.729Z,4.40
2022-12-25T06:50:24.558Z,5.77
2022-12-25T06:55:27.525Z,5.25
2022-12-25T07:00:30.660Z,5.35
2022-12-25T07:05:33.601Z,9.13
2022-12-25T07:10:36.416Z,12.15
2022-12-25T07:15:39.216Z,13.37
2022-12-25T07:20:41.926Z,12.43
2022-12-25T07:25:53.426Z,10.32
2022-12-25T07:31:00.949Z,9.77
2022-12-25T07:36:05.912Z,10.00
2022-12-25T07:41:13.392Z,8.97
2022-12-25T07:46:16.221Z,9.48
2022-12-25T07:51:19.063Z,10.88
2022-12-25T07:56:21.837Z,9.90
2022-12-25T08:01:27.608Z,11.00
2022-12-25T08:06:33.830Z,10.10
2022-12-25T08:11:37.555Z,10.25
2022-12-25T08:16:41.956Z,10.60
2022-12-25T08:21:44.807Z,9.47
2022-12-25T08:26:47.704Z,10.65
2022-12-25T08:31:51.434Z,10.60
2022-12-25T08:36:54.228Z,10.55
2022-12-25T08:41:57.104Z,10.95
2022-12-25T08:47:00.033Z,9.27
2022-12-25T08:52:02.875Z,9.40
2022-12-25T08:57:06.105Z,9.53
2022-12-25T09:02:11.863Z,9.48
2022-12-25T09:07:14.820Z,7.97
2022-12-25T09:12:17.727Z,7.50
2022-12-25T09:17:20.618Z,8.65
2022-12-25T09:22:23.373Z,8.23
2022-12-25T09:27:26.127Z,9.52
2022-12-25T09:32:29.082Z,8.95
2022-12-25T09:37:31.977Z,10.13
2022-12-25T09:42:34.998Z,10.98
2022-12-25T09:47:40.723Z,11.27
2022-12-25T09:53:07.986Z,10.50
2022-12-25T09:58:13.977Z,10.57
2022-12-25T10:03:45.868Z,10.20
2022-12-25T10:09:01.397Z,10.57
2022-12-25T10:14:30.366Z,8.57
2022-12-25T10:19:49.883Z,8.27
2022-12-25T10:24:56.416Z,7.97
2022-12-25T10:29:59.765Z,7.20
2022-12-25T10:35:02.659Z,9.00
2022-12-25T10:40:24.637Z,6.57
2022-12-25T10:45:27.520Z,7.20
2022-12-25T10:50:31.263Z,6.82
2022-12-25T10:55:34.535Z,7.20
2022-12-25T11:00:37.745Z,7.05
2022-12-25T11:05:40.636Z,6.77
2022-12-25T11:10:44.469Z,7.47
2022-12-25T11:16:01.900Z,6.45
2022-12-25T11:21:26.540Z,6.83
2022-12-25T11:26:36.932Z,5.95
2022-12-25T11:31:44.050Z,5.70
2022-12-25T11:36:52.911Z,6.30
2022-12-25T11:42:19.819Z,4.93
2022-12-25T11:47:36.875Z,6.40
2022-12-25T11:52:46.045Z,6.50
2022-12-25T11:57:58.065Z,6.60
2022-12-25T12:03:33.020Z,6.75
2022-12-25T12:08:36.760Z,6.57
2022-12-25T12:14:01.936Z,6.87
2022-12-25T12:19:31.493Z,5.75
2022-12-25T12:24:41.394Z,6.47
2022-12-25T12:29:45.960Z,6.57
2022-12-25T12:34:50.880Z,6.25
2022-12-25T12:39:55.143Z,6.47
2022-12-25T12:45:07.952Z,5.95
2022-12-25T12:50:43.870Z,6.40
2022-12-25T12:55:46.756Z,6.75
2022-12-25T13:01:13.788Z,6.63
2022-12-25T13:06:46.587Z,6.47
2022-12-25T13:11:50.352Z,5.95
2022-12-25T13:16:54.977Z,6.20
2022-12-25T13:22:00.656Z,5.70
2022-12-25T13:27:24.930Z,6.60
2022-12-25T13:32:32.783Z,5.60
2022-12-25T13:37:35.851Z,5.57
2022-12-25T13:42:40.213Z,5.90
2022-12-25T13:47:49.900Z,6.47
2022-12-25T13:52:56.021Z,8.95
2022-12-25T13:58:01.528Z,6.50
2022-12-25T14:03:15.393Z,6.72
2022-12-25T14:08:23.450Z,6.33
2022-12-25T14:13:29.109Z,6.90
2022-12-25T14:18:32.572Z,5.38
2022-12-25T14:23:47.139Z,5.50
2022-12-25T14:28:55.668Z,6.53
2022-12-25T14:34:00.272Z,5.90
2022-12-25T14:39:05.902Z,5.28
2022-12-25T14:44:31.233Z,4.82
2022-12-25T14:49:34.144Z,5.63
2022-12-25T14:54:37.598Z,6.18
2022-12-25T14:59:40.408Z,6.23
2022-12-25T15:04:44.434Z,8.15
2022-12-25T15:09:47.105Z,7.68
2022-12-25T15:14:49.873Z,10.37
2022-12-25T15:19:54.950Z,10.60
2022-12-25T15:25:02.259Z,11.50
2022-12-25T15:30:10.190Z,11.80
2022-12-25T15:35:21.294Z,11.85
2022-12-25T15:40:24.233Z,17.33
2022-12-25T15:45:29.553Z,20.55
2022-12-25T15:50:33.102Z,11.90
2022-12-25T15:55:36.872Z,19.15
2022-12-25T16:00:39.539Z,21.98
2022-12-25T16:05:42.228Z,11.87
2022-12-25T16:10:45.010Z,12.50
2022-12-25T16:15:47.779Z,14.50
2022-12-25T16:20:52.105Z,12.90
2022-12-25T16:25:54.847Z,10.57
2022-12-25T16:30:58.283Z,9.37
2022-12-25T16:36:01.066Z,9.35
2022-12-25T16:41:03.842Z,12.50
2022-12-25T16:46:11.786Z,13.45
2022-12-25T16:51:17.756Z,11.40
2022-12-25T16:56:25.798Z,12.13
2022-12-25T17:01:28.692Z,12.45
2022-12-25T17:06:31.611Z,9.70
2022-12-25T17:11:34.284Z,9.82
2022-12-25T17:16:38.352Z,9.68
2022-12-25T17:21:41.588Z,12.23
2022-12-25T17:26:44.966Z,11.43
2022-12-25T17:31:47.863Z,10.10
2022-12-25T17:36:50.800Z,11.90
2022-12-25T17:41:53.681Z,12.70
2022-12-25T17:46:56.448Z,13.80
2022-12-25T17:51:59.177Z,19.70
2022-12-25T17:57:02.053Z,14.87
2022-12-25T18:02:05.010Z,15.98
2022-12-25T18:07:07.873Z,16.35
2022-12-25T18:12:10.672Z,19.33
2022-12-25T18:17:13.583Z,21.92
2022-12-25T18:22:16.329Z,25.03
2022-12-25T18:27:19.180Z,20.90
2022-12-25T18:32:27.846Z,19.02
2022-12-25T18:37:35.856Z,15.13
2022-12-25T18:42:43.578Z,18.65
2022-12-25T18:47:46.783Z,23.13
2022-12-25T18:52:51.653Z,21.58
2022-12-25T18:57:55.744Z,20.20
2022-12-25T19:02:59.700Z,23.10
2022-12-25T19:08:02.648Z,20.92
2022-12-25T19:13:05.956Z,19.73
2022-12-25T19:18:08.636Z,21.70
2022-12-25T19:23:11.487Z,23.10
2022-12-25T19:28:14.273Z,20.00
2022-12-25T19:33:18.076Z,21.35
2022-12-25T19:38:20.902Z,21.00
2022-12-25T19:43:24.087Z,20.08
2022-12-25T19:48:27.083Z,21.70
2022-12-25T19:53:30.646Z,22.20
2022-12-25T19:58:33.324Z,21.40
2022-12-25T20:03:43.602Z,24.40
2022-12-25T20:08:51.292Z,22.88
2022-12-25T20:13:54.313Z,19.98
2022-12-25T20:18:58.235Z,27.60
2022-12-25T20:24:01.166Z,28.30
2022-12-25T20:29:04.876Z,25.07
2022-12-25T20:34:11.288Z,25.63
2022-12-25T20:39:14.239Z,28.17
2022-12-25T20:44:18.492Z,23.43
2022-12-25T20:49:21.181Z,28.10
2022-12-25T20:54:24.623Z,25.67
2022-12-25T20:59:29.761Z,27.05
2022-12-25T21:04:36.353Z,28.90
2022-12-25T21:09:39.211Z,28.57
2022-12-25T21:14:42.116Z,25.95
2022-12-25T21:19:44.908Z,26.13
2022-12-25T21:24:52.246Z,20.83
2022-12-25T21:29:56.255Z,19.33
2022-12-25T21:34:59.024Z,18.60
2022-12-25T21:40:01.992Z,18.38
2022-12-25T21:45:05.262Z,18.90
2022-12-25T21:50:27.265Z,19.70
2022-12-25T21:55:30.434Z,18.38
2022-12-25T22:00:33.352Z,16.33
2022-12-25T22:05:55.434Z,18.10
2022-12-25T22:10:58.793Z,18.57
2022-12-25T22:16:24.304Z,18.33
2022-12-25T22:21:27.095Z,18.90
2022-12-25T22:26:29.794Z,18.47
2022-12-25T22:31:32.584Z,19.30
2022-12-25T22:36:35.262Z,18.43
2022-12-25T22:41:37.993Z,17.58
2022-12-25T22:46:41.114Z,20.75
2022-12-25T22:51:45.808Z,18.73
2022-12-25T22:56:51.363Z,21.70
2022-12-25T23:01:54.644Z,19.03
2022-12-25T23:06:57.780Z,19.08
2022-12-25T23:12:00.525Z,16.55
2022-12-25T23:17:03.486Z,15.27
2022-12-25T23:22:29.055Z,19.67
2022-12-25T23:27:32.332Z,19.70
2022-12-25T23:32:35.224Z,18.83
2022-12-25T23:37:37.984Z,19.92
2022-12-25T23:42:41.073Z,20.33
2022-12-25T23:47:43.806Z,18.05
2022-12-25T23:52:46.722Z,16.70
2022-12-25T23:57:49.893Z,17.88
